Time;durP1;ratioP1;P1;durP2;ratioP2;P2;SDS_P1;SDS_P2;PMS_P1;PMS_P2;Temp;Humidity;BMP_temperature;BMP_pressure;BME280_temperature;BME280_humidity;BME280_pressure;Samples;Min_cycle;Max_cycle;Signal;HPM_P1;HPM_P2
2021/09/14 00:01:12;;;;;;;1.87;1.20;;;;;;;18.03;62.33;98912.47;5129830;27;42953;-80
2021/09/14 00:03:40;;;;;;;1.30;1.20;;;;;;;17.93;62.62;98895.53;5129542;27;42141;-80
2021/09/14 00:06:08;;;;;;;1.10;1.00;;;;;;;17.96;62.85;98905.97;5131453;27;41297;-80
2021/09/14 00:08:36;;;;;;;1.50;1.40;;;;;;;17.91;63.55;98903.75;5130121;27;41701;-81
2021/09/14 00:11:03;;;;;;;1.30;1.20;;;;;;;17.90;63.41;98903.88;5130307;27;42967;-80
2021/09/14 00:13:32;;;;;;;0.97;0.97;;;;;;;17.84;63.29;98899.06;5095922;27;41677;-80
2021/09/14 00:16:00;;;;;;;1.10;1.00;;;;;;;17.80;63.00;98895.00;5129479;27;40805;-80
2021/09/14 00:18:28;;;;;;;1.20;1.07;;;;;;;17.69;63.07;98881.72;5130059;27;40566;-81
2021/09/14 00:20:55;;;;;;;1.53;0.90;;;;;;;17.70;62.93;98896.78;5112692;27;43168;-80
2021/09/14 00:23:23;;;;;;;1.20;1.10;;;;;;;17.55;63.26;98874.91;5129475;27;43235;-80
2021/09/14 00:25:50;;;;;;;1.43;1.20;;;;;;;17.55;63.13;98886.47;5130586;27;40998;-80
2021/09/14 00:28:18;;;;;;;2.03;1.40;;;;;;;17.50;63.59;98880.69;5129427;27;41196;-81
2021/09/14 00:30:48;;;;;;;1.13;1.03;;;;;;;17.38;63.89;98868.41;5112547;27;42891;-79
2021/09/14 00:33:19;;;;;;;1.10;1.00;;;;;;;17.32;63.65;98866.25;5129815;27;42685;-80
2021/09/14 00:35:46;;;;;;;1.60;1.50;;;;;;;17.40;63.55;98887.84;5129076;27;39808;-80
2021/09/14 00:38:14;;;;;;;1.77;1.00;;;;;;;17.27;63.75;98865.84;5111984;27;41082;-79
2021/09/14 00:40:42;;;;;;;0.83;0.83;;;;;;;17.23;63.68;98859.06;5112087;27;42331;-80
2021/09/14 00:43:09;;;;;;;1.47;1.10;;;;;;;17.28;63.91;98877.41;5112098;27;42474;-80
2021/09/14 00:45:37;;;;;;;0.97;0.90;;;;;;;17.15;63.84;98856.25;5130166;27;41003;-80
2021/09/14 00:48:08;;;;;;;1.47;1.37;;;;;;;17.20;64.58;98864.69;5115848;27;41462;-79
2021/09/14 00:50:36;;;;;;;1.13;1.03;;;;;;;17.18;64.39;98861.34;5114720;27;41691;-81
2021/09/14 00:53:04;;;;;;;1.27;0.93;;;;;;;17.12;64.16;98859.19;5115697;27;42233;-81
2021/09/14 00:55:32;;;;;;;1.27;1.13;;;;;;;17.02;64.35;98850.28;5132193;27;39830;-81
2021/09/14 00:58:00;;;;;;;1.23;1.10;;;;;;;17.06;63.97;98854.41;5115145;27;41536;-80
2021/09/14 01:00:28;;;;;;;1.00;1.00;;;;;;;17.05;64.23;98861.56;5116072;27;41840;-80
2021/09/14 01:02:56;;;;;;;1.20;1.07;;;;;;;16.91;64.42;98839.69;5115427;27;41205;-79
2021/09/14 01:05:25;;;;;;;1.87;1.30;;;;;;;16.99;64.11;98858.59;5132675;27;38994;-80
2021/09/14 01:07:54;;;;;;;1.20;1.10;;;;;;;16.88;64.48;98847.00;5114922;27;40637;-80
2021/09/14 01:10:22;;;;;;;2.13;1.00;;;;;;;16.96;64.53;98856.19;5116097;27;41725;-81
2021/09/14 01:12:50;;;;;;;1.40;1.00;;;;;;;16.85;64.42;98855.31;5133137;27;42570;-80
2021/09/14 01:15:18;;;;;;;1.80;1.27;;;;;;;16.78;64.72;98832.75;5132767;27;40946;-80
2021/09/14 01:17:45;;;;;;;1.37;1.20;;;;;;;16.75;65.00;98830.34;5115112;27;40621;-80
2021/09/14 01:20:14;;;;;;;2.37;1.40;;;;;;;16.82;65.29;98844.88;5115233;27;42980;-79
2021/09/14 01:22:43;;;;;;;1.20;1.10;;;;;;;16.82;65.21;98842.19;5114932;27;41573;-81
2021/09/14 01:25:17;;;;;;;1.50;1.37;;;;;;;16.81;65.36;98837.81;5115680;27;39664;-82
2021/09/14 01:27:45;;;;;;;1.33;1.23;;;;;;;16.78;65.77;98840.78;5114859;27;40859;-80
2021/09/14 01:30:20;;;;;;;1.40;1.30;;;;;;;16.60;66.05;98812.94;5114561;27;43194;-80
2021/09/14 01:32:50;;;;;;;1.73;1.40;;;;;;;16.70;65.61;98840.59;5115101;27;41266;-80
2021/09/14 01:35:21;;;;;;;1.20;1.10;;;;;;;16.72;65.90;98844.00;5132122;27;40671;-80
2021/09/14 01:37:56;;;;;;;1.03;1.03;;;;;;;16.65;65.83;98837.50;5130815;27;42007;-80
2021/09/14 01:40:27;;;;;;;1.37;1.20;;;;;;;16.68;65.85;98836.38;5113586;27;42739;-81
2021/09/14 01:42:57;;;;;;;2.03;1.40;;;;;;;16.67;65.75;98846.25;5115121;27;41352;-80
2021/09/14 01:45:25;;;;;;;2.97;1.23;;;;;;;16.64;65.62;98843.81;5114613;27;40258;-80
2021/09/14 01:47:52;;;;;;;1.63;1.50;;;;;;;16.62;66.11;98840.44;5114680;27;40913;-80
2021/09/14 01:50:22;;;;;;;1.13;1.07;;;;;;;16.61;66.08;98836.03;5115372;27;43249;-80
2021/09/14 01:52:50;;;;;;;1.73;1.50;;;;;;;16.61;66.24;98840.53;5131546;27;43279;-80
2021/09/14 01:55:20;;;;;;;1.33;1.23;;;;;;;16.51;66.51;98829.81;5097963;27;39204;-80
2021/09/14 01:57:51;;;;;;;1.40;1.30;;;;;;;16.58;66.18;98846.97;5112124;27;42058;-80
2021/09/14 02:00:21;;;;;;;1.20;1.10;;;;;;;16.57;66.14;98842.63;5113844;27;41589;-80
2021/09/14 02:39:28;;;;;;;1.27;1.13;;;;;;;16.23;66.33;98830.50;5113557;27;39281;-80
2021/09/14 02:42:14;;;;;;;1.43;1.17;;;;;;;16.17;66.06;98835.41;5131037;27;41837;-80
2021/09/14 02:56:25;;;;;;;0.77;0.77;;;;;;;15.97;66.13;98820.22;5055413;28;41844;-80
2021/09/14 02:58:52;;;;;;;1.20;1.10;;;;;;;16.01;66.23;98837.69;5071673;28;42477;-80
2021/09/14 03:01:22;;;;;;;1.57;1.40;;;;;;;15.99;66.10;98839.63;5090853;27;38810;-80
2021/09/14 03:03:53;;;;;;;1.83;1.20;;;;;;;15.89;66.05;98817.34;5112437;27;41011;-80
2021/09/14 03:06:20;;;;;;;1.73;1.63;;;;;;;15.95;66.32;98832.03;5113579;27;41770;-80
2021/09/14 03:08:50;;;;;;;1.03;1.03;;;;;;;15.90;66.48;98826.22;5129673;27;43317;-80
2021/09/14 03:11:23;;;;;;;1.30;1.17;;;;;;;15.81;66.29;98814.50;5131406;27;41378;-80
2021/09/14 03:13:56;;;;;;;1.20;1.10;;;;;;;15.78;66.19;98810.25;5113011;27;40733;-80
2021/09/14 03:16:25;;;;;;;1.80;1.50;;;;;;;15.82;66.42;98829.53;5130867;27;44143;-80
2021/09/14 03:18:53;;;;;;;1.33;1.10;;;;;;;15.78;66.76;98830.75;5113234;27;41045;-80
2021/09/14 03:21:21;;;;;;;1.30;1.20;;;;;;;15.74;66.90;98815.97;5112716;27;38977;-80
2021/09/14 03:23:49;;;;;;;1.03;1.00;;;;;;;15.72;66.63;98820.59;5130303;27;42019;-80
2021/09/14 03:26:16;;;;;;;1.57;1.47;;;;;;;15.69;66.80;98826.22;5130577;27;42825;-80
2021/09/14 03:28:44;;;;;;;1.20;1.10;;;;;;;15.66;66.78;98816.63;5113137;27;41334;-80
2021/09/14 03:31:15;;;;;;;1.20;1.10;;;;;;;15.64;66.88;98823.06;5113169;27;38740;-80
2021/09/14 03:33:45;;;;;;;1.53;1.20;;;;;;;15.53;66.95;98804.41;5129644;27;41949;-81
2021/09/14 03:36:15;;;;;;;1.83;1.10;;;;;;;15.58;66.78;98813.72;5113567;27;43118;-81
2021/09/14 03:38:44;;;;;;;2.03;1.70;;;;;;;15.54;67.82;98804.28;5112564;27;41133;-80
2021/09/14 03:41:12;;;;;;;1.50;1.40;;;;;;;15.50;67.97;98802.81;5129751;27;40308;-81
2021/09/14 03:43:40;;;;;;;1.27;1.17;;;;;;;15.46;67.64;98799.56;5112633;27;41715;-81
2021/09/14 03:46:07;;;;;;;1.50;1.30;;;;;;;15.48;67.88;98793.25;5130572;27;43072;-81
2021/09/14 03:48:35;;;;;;;1.17;1.07;;;;;;;15.50;67.51;98809.97;5112089;27;41680;-81
2021/09/14 03:51:05;;;;;;;1.50;1.40;;;;;;;15.40;67.62;98800.09;5112742;27;38981;-80
2021/09/14 03:53:32;;;;;;;1.57;1.20;;;;;;;15.49;67.75;98818.97;5113155;27;40870;-80
2021/09/14 03:56:00;;;;;;;1.30;1.20;;;;;;;15.39;67.38;98802.88;5112657;27;42251;-80
2021/09/14 03:58:28;;;;;;;1.33;1.03;;;;;;;15.46;67.48;98815.56;5129646;27;42626;-80
2021/09/14 04:00:55;;;;;;;1.50;1.10;;;;;;;15.45;67.68;98808.53;5112552;27;39887;-79
2021/09/14 04:03:36;;;;;;;1.20;1.10;;;;;;;15.43;67.86;98813.19;5095975;27;42002;-80
2021/09/14 04:06:33;;;;;;;2.00;1.50;;;;;;;15.31;67.62;98795.53;5112435;27;42090;-80
2021/09/14 04:09:01;;;;;;;1.23;1.10;;;;;;;15.37;67.70;98800.31;5111621;27;41617;-81
2021/09/14 04:11:35;;;;;;;0.97;0.93;;;;;;;15.38;67.87;98811.84;5113632;27;39287;-83
2021/09/14 04:14:02;;;;;;;1.60;1.33;;;;;;;15.31;67.93;98800.00;5129816;27;41940;-81
2021/09/14 04:16:30;;;;;;;1.37;1.27;;;;;;;15.32;67.81;98805.22;5113425;27;42048;-81
2021/09/14 04:18:59;;;;;;;2.20;1.47;;;;;;;15.33;67.75;98808.75;5134264;27;41364;-82
2021/09/14 04:21:27;;;;;;;1.50;1.40;;;;;;;15.30;68.19;98809.81;5135955;27;40094;-81
2021/09/14 04:23:55;;;;;;;1.40;1.30;;;;;;;15.23;68.14;98795.28;5137572;27;42948;-80
2021/09/14 04:26:27;;;;;;;1.40;1.27;;;;;;;15.25;68.48;98806.69;5138133;27;42969;-81
2021/09/14 04:28:54;;;;;;;1.27;1.17;;;;;;;15.24;68.63;98804.97;5155273;27;43675;-81
2021/09/14 04:31:22;;;;;;;1.67;1.57;;;;;;;15.22;69.86;98817.59;5138029;27;39332;-80
2021/09/14 04:33:50;;;;;;;2.10;1.70;;;;;;;15.21;69.58;98821.22;5118987;27;40644;-80
2021/09/14 04:36:17;;;;;;;1.60;1.40;;;;;;;15.20;69.02;98816.06;5119376;27;42769;-81
2021/09/14 04:38:46;;;;;;;1.63;1.40;;;;;;;15.21;69.16;98826.56;5118481;27;41514;-81
2021/09/14 04:41:14;;;;;;;1.50;1.33;;;;;;;15.23;69.34;98813.97;5137231;27;40341;-81
2021/09/14 04:43:42;;;;;;;2.27;1.60;;;;;;;15.27;69.79;98812.75;5137582;27;41768;-81
2021/09/14 04:46:10;;;;;;;1.90;1.80;;;;;;;15.25;69.31;98817.34;5133843;27;43966;-81
2021/09/14 04:48:38;;;;;;;1.63;1.30;;;;;;;15.22;68.94;98806.91;5134001;27;42505;-81
2021/09/14 04:51:06;;;;;;;1.60;1.30;;;;;;;15.33;68.94;98824.75;5133069;27;40942;-81
2021/09/14 04:53:33;;;;;;;1.57;1.47;;;;;;;15.31;69.17;98816.88;5114757;27;42017;-81
2021/09/14 04:56:03;;;;;;;2.13;1.23;;;;;;;15.33;69.21;98819.41;5132791;27;41671;-81
2021/09/14 04:58:36;;;;;;;2.20;2.00;;;;;;;15.24;69.07;98802.31;5116164;27;41380;-81
2021/09/14 05:01:05;;;;;;;1.47;1.37;;;;;;;15.34;69.00;98827.25;5132924;27;41020;-80
2021/09/14 05:03:33;;;;;;;1.33;1.23;;;;;;;15.36;69.22;98824.47;5132771;27;41821;-80
2021/09/14 05:06:01;;;;;;;1.40;1.30;;;;;;;15.29;69.24;98807.28;5114496;27;41601;-81
2021/09/14 05:08:29;;;;;;;2.23;1.90;;;;;;;15.24;69.36;98791.66;5132255;27;42492;-81
2021/09/14 05:10:58;;;;;;;1.43;1.30;;;;;;;15.37;69.48;98810.16;5133264;27;40688;-80
2021/09/14 05:13:27;;;;;;;2.10;1.83;;;;;;;15.40;70.01;98815.25;5114691;27;40546;-81
2021/09/14 05:15:57;;;;;;;2.03;1.83;;;;;;;15.35;69.96;98801.44;5132010;27;42760;-80
2021/09/14 05:18:47;;;;;;;2.03;1.53;;;;;;;15.49;69.95;98808.28;5132183;27;41396;-81
2021/09/14 05:21:16;;;;;;;1.67;1.57;;;;;;;15.55;69.31;98815.84;5113924;27;38775;-81
2021/09/14 05:23:43;;;;;;;1.90;1.33;;;;;;;15.58;69.69;98807.56;5114949;27;40701;-81
2021/09/14 05:26:11;;;;;;;1.60;1.50;;;;;;;15.67;69.35;98806.78;5131369;27;42660;-81
2021/09/14 05:28:43;;;;;;;2.07;1.60;;;;;;;15.82;69.08;98818.84;5131676;27;43035;-82
2021/09/14 05:31:11;;;;;;;1.53;1.30;;;;;;;15.90;69.24;98807.50;5132366;27;39849;-82
2021/09/14 05:33:39;;;;;;;1.53;1.43;;;;;;;15.95;69.05;98811.47;5132262;27;42791;-82
2021/09/14 05:36:09;;;;;;;1.77;1.67;;;;;;;15.98;69.20;98805.03;5115816;27;42038;-81
2021/09/14 05:38:38;;;;;;;1.70;1.60;;;;;;;15.98;69.05;98795.19;5131120;27;42621;-81
2021/09/14 05:41:06;;;;;;;1.57;1.47;;;;;;;16.11;68.67;98814.53;5130936;27;41617;-81
2021/09/14 05:43:36;;;;;;;5.23;3.83;;;;;;;16.13;68.70;98809.91;5114708;27;40850;-82
2021/09/14 05:46:05;;;;;;;3.30;2.17;;;;;;;16.15;68.77;98804.44;5125889;27;42940;-79
2021/09/14 05:48:36;;;;;;;4.07;2.50;;;;;;;15.96;68.91;98775.78;5112278;27;42276;-87
2021/09/14 05:51:05;;;;;;;2.30;1.90;;;;;;;16.14;68.98;98806.25;5113629;27;39276;-79
2021/09/14 05:53:39;;;;;;;3.07;2.20;;;;;;;16.13;68.72;98799.22;5113074;27;41766;-77
2021/09/14 05:56:07;;;;;;;2.97;1.57;;;;;;;16.26;68.59;98808.84;5129851;27;43908;-84
2021/09/14 05:58:35;;;;;;;1.97;1.73;;;;;;;16.20;68.62;98782.66;5113789;27;41214;-81
2021/09/14 06:01:03;;;;;;;2.93;2.00;;;;;;;16.37;68.75;98806.94;5114438;27;39739;-80
2021/09/14 06:03:33;;;;;;;2.20;1.93;;;;;;;16.45;68.68;98814.28;5130595;27;41805;-81
2021/09/14 06:06:05;;;;;;;1.83;1.40;;;;;;;16.52;68.55;98804.75;5113747;27;41737;-80
2021/09/14 06:08:34;;;;;;;1.80;1.50;;;;;;;16.56;67.90;98800.84;5131584;27;43046;-81
2021/09/14 06:11:02;;;;;;;1.70;1.60;;;;;;;16.70;67.90;98802.31;5111709;27;38979;-86
2021/09/14 06:13:30;;;;;;;1.73;1.63;;;;;;;16.71;67.91;98791.47;5131026;27;41828;-84
2021/09/14 06:15:58;;;;;;;1.47;1.37;;;;;;;16.91;67.37;98804.94;5113658;27;42154;-79
2021/09/14 06:18:27;;;;;;;2.07;1.60;;;;;;;16.88;67.07;98780.13;5131582;27;42610;-82
2021/09/14 06:20:57;;;;;;;2.10;1.90;;;;;;;17.07;66.92;98790.03;5113654;27;39232;-84
2021/09/14 06:23:26;;;;;;;2.83;2.50;;;;;;;17.07;67.28;98778.47;5131374;27;41896;-82
2021/09/14 06:25:56;;;;;;;5.03;3.30;;;;;;;17.32;67.74;98815.41;5130960;27;43630;-83
2021/09/14 06:28:24;;;;;;;4.80;3.17;;;;;;;17.42;68.13;98813.63;5131153;27;42488;-84
2021/09/14 06:30:51;;;;;;;3.40;2.20;;;;;;;17.53;67.43;98813.47;5115168;27;40155;-86
2021/09/14 06:33:24;;;;;;;3.53;2.23;;;;;;;17.71;66.96;98820.81;5114354;27;41356;-83
2021/09/14 06:35:54;;;;;;;2.77;2.07;;;;;;;17.95;66.75;98821.22;5113621;27;41647;-81
2021/09/14 06:38:28;;;;;;;2.27;2.07;;;;;;;18.10;66.55;98821.63;5114236;27;41220;-79
2021/09/14 06:40:56;;;;;;;1.83;1.73;;;;;;;18.23;65.93;98825.69;5113807;27;38800;-88
2021/09/14 06:43:28;;;;;;;2.27;1.90;;;;;;;18.29;66.11;98827.78;5112595;27;41725;-79
2021/09/14 06:46:13;;;;;;;1.83;1.67;;;;;;;18.29;66.09;98816.22;5130693;27;43931;-89
2021/09/14 06:48:48;;;;;;;1.53;1.43;;;;;;;18.48;65.84;98839.44;5113504;27;41718;-81
2021/09/14 06:51:16;;;;;;;2.33;2.00;;;;;;;18.64;65.79;98837.03;5113381;27;40593;-82
2021/09/14 06:53:45;;;;;;;1.90;1.80;;;;;;;18.69;65.53;98824.00;5130840;27;42262;-83
2021/09/14 06:56:13;;;;;;;1.97;1.80;;;;;;;18.82;65.18;98832.56;5127463;27;43668;-82
2021/09/14 06:58:45;;;;;;;2.00;1.80;;;;;;;18.83;64.96;98826.19;5109740;28;42608;-84
2021/09/14 07:01:18;;;;;;;2.17;1.97;;;;;;;18.98;64.62;98830.09;5106899;28;40032;-79
2021/09/14 07:03:46;;;;;;;2.37;1.93;;;;;;;19.12;64.36;98819.84;5106765;28;40750;-81
2021/09/14 07:06:13;;;;;;;1.90;1.80;;;;;;;20.03;62.71;98842.88;5106543;28;41893;-82
2021/09/14 07:08:41;;;;;;;2.63;1.90;;;;;;;21.07;60.08;98832.94;5118314;27;42792;-88
2021/09/14 07:11:11;;;;;;;1.70;1.57;;;;;;;21.83;58.18;98848.97;5113296;27;39991;-86
2021/09/14 07:13:38;;;;;;;1.70;1.60;;;;;;;22.16;57.52;98847.16;5111699;27;40921;-81
2021/09/14 07:16:06;;;;;;;2.37;2.10;;;;;;;22.33;57.63;98840.75;5130318;27;43729;-87
2021/09/14 07:18:37;;;;;;;1.97;1.70;;;;;;;22.38;57.15;98835.66;5130363;27;42249;-80
2021/09/14 07:21:05;;;;;;;2.50;2.27;;;;;;;22.58;57.18;98836.97;5130632;27;41037;-87
2021/09/14 07:23:33;;;;;;;5.03;2.10;;;;;;;22.93;57.28;98842.97;5113354;27;41019;-81
2021/09/14 07:26:01;;;;;;;2.27;2.03;;;;;;;23.20;56.14;98836.28;5131078;27;43928;-83
2021/09/14 07:28:30;;;;;;;2.03;1.83;;;;;;;23.55;55.42;98846.59;5130686;27;43254;-83
2021/09/14 07:30:58;;;;;;;2.00;1.80;;;;;;;23.62;54.25;98842.13;5130271;27;40976;-84
2021/09/14 07:33:26;;;;;;;2.33;2.13;;;;;;;23.81;54.80;98846.25;5129233;27;41654;-82
2021/09/14 07:35:54;;;;;;;2.63;2.40;;;;;;;23.99;53.82;98838.66;5113336;27;42685;-80
2021/09/14 07:38:21;;;;;;;1.83;1.63;;;;;;;24.51;53.08;98848.69;5128674;27;42626;-81
2021/09/14 07:40:49;;;;;;;2.67;2.23;;;;;;;25.00;51.43;98853.59;5111924;27;39212;-81
2021/09/14 07:43:16;;;;;;;2.53;2.33;;;;;;;25.30;50.52;98849.84;5129144;27;42008;-81
2021/09/14 07:45:46;;;;;;;1.90;1.80;;;;;;;25.89;49.97;98865.97;5113022;27;43135;-88
2021/09/14 07:48:13;;;;;;;1.80;1.70;;;;;;;26.75;48.24;98873.00;5103998;28;42574;-82
2021/09/14 07:50:41;;;;;;;2.30;2.10;;;;;;;28.20;44.52;98884.50;5106954;28;40509;-81
2021/09/14 07:53:09;;;;;;;2.10;1.97;;;;;;;29.67;40.12;98913.28;5106586;28;41997;-81
2021/09/14 07:55:37;;;;;;;3.23;2.00;;;;;;;30.43;39.30;98892.22;5089653;28;42138;-81
2021/09/14 07:58:05;;;;;;;2.10;2.00;;;;;;;31.19;37.91;98910.28;5107464;28;42184;-81
2021/09/14 08:00:32;;;;;;;2.40;2.20;;;;;;;31.78;36.61;98912.34;5108348;28;40947;-80
2021/09/14 08:03:02;;;;;;;2.07;1.87;;;;;;;31.66;36.37;98895.00;5090310;28;41132;-81
2021/09/14 08:05:30;;;;;;;2.80;2.47;;;;;;;31.27;36.78;98910.00;5090157;28;43165;-81
2021/09/14 08:07:58;;;;;;;1.60;1.50;;;;;;;30.55;38.12;98897.84;5108717;28;42526;-81
2021/09/14 08:10:25;;;;;;;1.60;1.50;;;;;;;30.04;38.91;98898.00;5108783;28;41352;-80
2021/09/14 08:12:53;;;;;;;2.40;2.20;;;;;;;29.86;39.13;98901.41;5093920;27;41998;-81
2021/09/14 08:15:21;;;;;;;2.00;1.80;;;;;;;29.55;39.81;98900.28;5111893;27;42064;-81
2021/09/14 08:17:48;;;;;;;1.80;1.70;;;;;;;29.29;40.42;98892.22;5130687;27;43071;-81
2021/09/14 08:20:17;;;;;;;2.13;1.93;;;;;;;29.13;41.58;98877.13;5128630;27;40645;-82
2021/09/14 08:22:45;;;;;;;2.37;2.27;;;;;;;29.79;40.44;98878.78;5108265;27;41653;-81
2021/09/14 08:25:13;;;;;;;2.40;2.13;;;;;;;30.09;39.42;98888.06;5108018;28;42901;-82
2021/09/14 08:27:42;;;;;;;2.10;1.97;;;;;;;30.51;39.18;98891.13;5108289;28;42273;-81
2021/09/14 08:30:13;;;;;;;2.10;1.90;;;;;;;30.98;38.82;98895.97;5107857;28;39953;-81
2021/09/14 08:32:41;;;;;;;2.10;1.90;;;;;;;31.51;37.01;98898.16;5108083;28;41752;-81
2021/09/14 08:35:09;;;;;;;2.30;2.20;;;;;;;32.10;36.19;98899.25;5125964;27;42964;-82
2021/09/14 08:37:39;;;;;;;2.37;2.17;;;;;;;32.80;35.56;98899.44;5092281;28;42501;-82
2021/09/14 08:40:08;;;;;;;2.27;2.07;;;;;;;33.86;33.79;98904.56;5090950;28;38923;-80
2021/09/14 08:42:37;;;;;;;2.33;2.13;;;;;;;35.03;31.57;98928.63;5107439;28;41047;-82
2021/09/14 08:45:07;;;;;;;2.22;2.03;;;;;;;36.47;29.77;98939.31;5090773;28;41935;-81
2021/09/14 08:47:36;;;;;;;2.80;2.60;;;;;;;37.77;27.69;98956.28;5125267;27;41286;-81
2021/09/14 08:50:06;;;;;;;2.50;2.30;;;;;;;38.27;27.13;98949.28;5108140;28;40179;-81
2021/09/14 08:52:34;;;;;;;2.10;1.98;;;;;;;37.75;27.68;98942.75;5109451;28;41923;-80
2021/09/14 08:55:03;;;;;;;2.58;1.92;;;;;;;36.43;29.16;98932.66;5090975;28;42142;-83
2021/09/14 08:57:31;;;;;;;2.20;2.00;;;;;;;35.32;30.15;98910.09;5090399;28;41505;-80
2021/09/14 08:59:59;;;;;;;2.33;2.20;;;;;;;34.78;31.05;98906.22;5120518;27;40124;-81
2021/09/14 09:02:26;;;;;;;2.07;1.90;;;;;;;34.27;32.16;98904.50;5112184;27;41125;-81
2021/09/14 09:04:56;;;;;;;2.80;2.60;;;;;;;33.74;32.75;98884.53;5128589;27;42912;-80
2021/09/14 09:07:34;;;;;;;3.30;3.00;;;;;;;34.57;32.16;98892.13;5130073;27;42475;-80
2021/09/14 09:10:15;;;;;;;2.50;2.30;;;;;;;36.11;30.11;98915.19;5113928;27;38950;-82
2021/09/14 09:12:44;;;;;;;2.30;2.10;;;;;;;36.87;28.96;98916.75;5132100;27;41688;-81
2021/09/14 09:15:23;;;;;;;2.63;2.43;;;;;;;36.41;29.93;98907.25;5131899;27;41918;-80
2021/09/14 09:18:08;;;;;;;2.40;2.20;;;;;;;35.43;30.57;98914.66;5132381;27;42468;-81
2021/09/14 09:20:38;;;;;;;2.60;1.97;;;;;;;34.86;31.80;98908.56;5131791;27;38924;-81
2021/09/14 09:23:08;;;;;;;3.17;2.63;;;;;;;34.53;32.20;98909.38;5113829;27;42105;-83
2021/09/14 09:25:38;;;;;;;2.47;2.30;;;;;;;34.17;32.27;98905.97;5131427;27;42903;-81
2021/09/14 09:28:10;;;;;;;2.30;2.17;;;;;;;33.50;32.82;98900.25;5131134;27;42367;-81
2021/09/14 09:30:40;;;;;;;2.53;2.33;;;;;;;32.84;33.98;98903.38;5115279;27;39259;-80
2021/09/14 09:33:10;;;;;;;2.57;2.30;;;;;;;32.43;34.94;98894.13;5114549;27;41792;-81
2021/09/14 09:35:39;;;;;;;1.87;1.77;;;;;;;32.21;35.22;98883.94;5132019;27;42752;-81
2021/09/14 09:38:08;;;;;;;3.17;2.90;;;;;;;31.76;35.65;98868.78;5115121;27;41496;-81
2021/09/14 09:40:41;;;;;;;2.00;1.87;;;;;;;31.46;36.31;98876.09;5132208;27;40298;-82
2021/09/14 09:43:10;;;;;;;2.37;2.10;;;;;;;31.21;37.27;98875.34;5130915;27;41778;-82
2021/09/14 09:45:42;;;;;;;2.47;2.00;;;;;;;31.06;37.88;98853.78;5132072;27;41884;-81
2021/09/14 09:48:11;;;;;;;1.90;1.80;;;;;;;31.01;38.02;98862.69;5114105;27;42097;-81
2021/09/14 09:50:39;;;;;;;2.10;1.87;;;;;;;31.01;37.81;98857.22;5133237;27;41888;-82
2021/09/14 09:53:09;;;;;;;2.27;2.10;;;;;;;30.98;37.87;98851.38;5114465;27;41917;-81
2021/09/14 09:55:39;;;;;;;2.43;2.23;;;;;;;31.03;37.85;98866.00;5133343;27;43482;-80
2021/09/14 09:58:08;;;;;;;2.40;2.20;;;;;;;31.05;37.54;98863.88;5115050;27;41984;-81
2021/09/14 10:00:38;;;;;;;2.20;2.00;;;;;;;31.01;38.10;98854.50;5130964;27;40750;-81
2021/09/14 10:03:11;;;;;;;2.23;2.03;;;;;;;30.90;37.81;98857.97;5113823;27;40779;-82
2021/09/14 10:05:40;;;;;;;2.00;1.90;;;;;;;30.87;38.40;98842.00;5114288;27;41783;-82
2021/09/14 10:08:11;;;;;;;4.23;2.40;;;;;;;30.96;37.92;98848.84;5131324;27;43246;-81
2021/09/14 10:10:43;;;;;;;2.50;2.30;;;;;;;30.91;38.42;98848.69;5114851;27;39677;-81
2021/09/14 10:13:11;;;;;;;2.13;1.93;;;;;;;30.96;38.07;98848.84;5130467;27;41820;-81
2021/09/14 10:15:40;;;;;;;1.90;1.80;;;;;;;31.13;38.76;98848.28;5131168;27;41830;-82
2021/09/14 10:18:09;;;;;;;3.77;2.00;;;;;;;31.32;38.12;98841.72;5129759;27;41342;-82
2021/09/14 10:20:39;;;;;;;2.87;2.67;;;;;;;31.85;37.58;98827.34;5131499;27;39825;-83
2021/09/14 10:23:09;;;;;;;2.57;2.27;;;;;;;32.76;36.27;98854.38;5132203;27;41385;-83
2021/09/14 10:25:37;;;;;;;2.40;2.20;;;;;;;32.89;35.33;98826.66;5130886;27;42912;-81
2021/09/14 10:28:12;;;;;;;2.03;1.93;;;;;;;33.32;34.62;98872.09;5131507;27;42373;-82
2021/09/14 10:30:40;;;;;;;2.60;2.30;;;;;;;33.87;33.25;98867.78;5131407;27;38840;-83
2021/09/14 10:33:19;;;;;;;2.30;2.00;;;;;;;35.01;31.55;98878.50;5130237;27;40851;-81
2021/09/14 10:35:47;;;;;;;2.63;2.43;;;;;;;35.69;29.55;98888.25;5130937;27;42985;-83
2021/09/14 10:38:17;;;;;;;2.00;1.90;;;;;;;35.67;29.97;98887.66;5131496;27;42279;-81
2021/09/14 10:40:46;;;;;;;2.07;1.93;;;;;;;35.73;30.14;98886.66;5130939;27;41256;-83
2021/09/14 10:43:35;;;;;;;3.20;2.10;;;;;;;36.55;29.39;98880.88;5130110;27;42083;-82
2021/09/14 10:46:04;;;;;;;1.83;1.73;;;;;;;36.83;28.50;98889.97;5131892;27;20233;-81
2021/09/14 10:48:34;;;;;;;1.80;1.70;;;;;;;36.66;29.23;98885.38;5130920;27;42261;-82
2021/09/14 10:51:13;;;;;;;2.00;1.90;;;;;;;36.48;29.78;98872.00;5130964;27;40371;-82
2021/09/14 10:53:41;;;;;;;1.97;1.87;;;;;;;36.34;30.30;98870.78;5112577;27;41944;-82
2021/09/14 10:56:11;;;;;;;1.83;1.73;;;;;;;36.16;30.23;98871.13;5130510;27;42735;-82
2021/09/14 10:58:43;;;;;;;2.23;2.13;;;;;;;36.49;30.12;98868.13;5130039;27;42094;-82
2021/09/14 11:01:11;;;;;;;2.17;2.00;;;;;;;36.90;29.51;98874.00;5112768;27;38958;-82
2021/09/14 11:03:39;;;;;;;1.90;1.80;;;;;;;37.39;28.98;98875.41;5112758;27;40701;-81
2021/09/14 11:06:08;;;;;;;2.40;2.20;;;;;;;37.77;28.35;98881.66;5113649;27;42812;-83
2021/09/14 11:08:36;;;;;;;2.10;1.90;;;;;;;38.38;27.26;98881.78;5129680;27;42384;-82
2021/09/14 11:11:04;;;;;;;2.42;2.22;;;;;;;38.86;26.32;98890.66;5116749;27;39206;-83
2021/09/14 11:13:32;;;;;;;2.22;2.13;;;;;;;39.21;25.91;98885.06;5144282;27;41703;-82
2021/09/14 11:16:03;;;;;;;1.88;1.77;;;;;;;39.45;26.48;98890.81;5136254;27;42197;-81
2021/09/14 11:18:32;;;;;;;1.88;1.77;;;;;;;39.38;26.26;98888.34;5132742;27;41509;-84
2021/09/14 11:21:06;;;;;;;2.03;1.92;;;;;;;39.15;26.52;98886.19;5116606;27;39204;-83
2021/09/14 11:23:35;;;;;;;3.83;2.33;;;;;;;39.21;26.68;98882.28;5116424;27;41970;-82
2021/09/14 11:26:04;;;;;;;2.00;1.90;;;;;;;39.52;25.83;98894.13;5142272;27;41679;-83
2021/09/14 11:28:32;;;;;;;2.08;1.98;;;;;;;39.63;25.16;98900.47;5141742;27;41302;-83
2021/09/14 11:31:04;;;;;;;2.03;1.92;;;;;;;39.55;25.53;98898.28;5133325;27;40770;-81
2021/09/14 11:33:33;;;;;;;2.25;2.05;;;;;;;39.28;25.57;98882.00;5126253;27;42369;-82
2021/09/14 11:36:02;;;;;;;2.65;2.45;;;;;;;39.83;25.07;98881.78;5124673;27;42905;-81
2021/09/14 11:38:30;;;;;;;2.47;2.28;;;;;;;41.55;23.52;98896.19;5121700;27;42375;-82
2021/09/14 11:41:00;;;;;;;2.08;1.98;;;;;;;43.48;22.02;98895.06;5117416;27;39377;-82
2021/09/14 11:43:30;;;;;;;1.60;1.50;;;;;;;45.30;20.44;98901.88;5128924;27;41966;-83
2021/09/14 11:45:58;;;;;;;1.70;1.60;;;;;;;46.77;19.27;98905.75;5137770;27;42683;-82
2021/09/14 11:48:30;;;;;;;1.67;1.58;;;;;;;47.97;17.75;98914.06;5118474;27;41326;-83
2021/09/14 11:51:09;;;;;;;2.30;2.10;;;;;;;48.86;16.66;98909.84;5145412;27;39903;-81
2021/09/14 11:53:39;;;;;;;1.88;1.77;;;;;;;49.17;16.69;98890.50;5112575;27;42382;-83
2021/09/14 11:56:15;;;;;;;1.77;1.67;;;;;;;49.51;16.40;98899.66;5129232;27;43894;-82
2021/09/14 11:58:44;;;;;;;2.38;2.17;;;;;;;49.81;16.02;98898.25;5125678;27;41670;-83
2021/09/14 12:01:13;;;;;;;1.65;1.55;;;;;;;50.07;15.99;98902.69;5133215;27;40733;-85
2021/09/14 12:03:44;;;;;;;1.80;1.70;;;;;;;50.14;15.39;98895.28;5131800;27;42119;-82
2021/09/14 12:06:14;;;;;;;1.85;1.75;;;;;;;49.95;15.74;98887.44;5126673;27;41815;-83
2021/09/14 12:08:43;;;;;;;2.00;1.90;;;;;;;50.10;15.93;98887.88;5111443;27;41947;-84
2021/09/14 12:11:11;;;;;;;1.77;1.67;;;;;;;50.09;15.55;98884.25;5110907;27;39130;-84
2021/09/14 12:13:41;;;;;;;1.90;1.80;;;;;;;49.85;15.93;98875.81;5115631;27;40771;-84
2021/09/14 12:16:13;;;;;;;2.00;1.80;;;;;;;49.46;15.75;98877.38;5122736;27;43118;-83
2021/09/14 12:18:42;;;;;;;2.17;2.08;;;;;;;49.48;16.03;98877.84;5110547;27;41218;-84
2021/09/14 12:21:10;;;;;;;1.95;1.85;;;;;;;49.69;15.63;98861.69;5128632;27;41849;-82
2021/09/14 12:23:39;;;;;;;1.83;1.73;;;;;;;50.00;15.96;98865.84;5127455;27;40650;-83
2021/09/14 12:26:17;;;;;;;1.80;1.70;;;;;;;50.28;15.68;98872.38;5137220;27;42380;-83
2021/09/14 12:28:45;;;;;;;1.70;1.60;;;;;;;50.50;15.51;98865.31;5117943;27;42551;-85
2021/09/14 12:31:13;;;;;;;2.03;1.92;;;;;;;50.80;15.23;98871.44;5127782;27;41632;-82
2021/09/14 12:33:43;;;;;;;1.48;1.40;;;;;;;50.97;14.54;98863.44;5116059;27;40546;-83